sensor_id;sensor_type;location;lat;lon;timestamp;pressure;altitude;pressure_sealevel;temperature;humidity
59729;BME280;45588;51.598;5.618;2022-07-23T00:01:26;101749.84;;;14.64;100.00
59729;BME280;45588;51.598;5.618;2022-07-23T00:03:52;101737.47;;;14.57;100.00
59729;BME280;45588;51.598;5.618;2022-07-23T00:06:19;101745.19;;;14.53;100.00
59729;BME280;45588;51.598;5.618;2022-07-23T00:08:44;101743.47;;;14.53;100.00
59729;BME280;45588;51.598;5.618;2022-07-23T00:11:10;101752.22;;;14.54;100.00
59729;BME280;45588;51.598;5.618;2022-07-23T00:13:35;101745.19;;;14.53;100.00
59729;BME280;45588;51.598;5.618;2022-07-23T00:16:00;101746.75;;;14.44;100.00
59729;BME280;45588;51.598;5.618;2022-07-23T00:18:26;101749.38;;;14.44;100.00
59729;BME280;45588;51.598;5.618;2022-07-23T00:20:51;101744.16;;;14.46;100.00
59729;BME280;45588;51.598;5.618;2022-07-23T00:23:17;101742.19;;;14.36;100.00
59729;BME280;45588;51.598;5.618;2022-07-23T00:25:42;101743.00;;;14.33;100.00
59729;BME280;45588;51.598;5.618;2022-07-23T00:28:07;101750.84;;;14.32;100.00
59729;BME280;45588;51.598;5.618;2022-07-23T00:30:33;101756.97;;;14.32;100.00
59729;BME280;45588;51.598;5.618;2022-07-23T00:33:00;101742.00;;;14.26;100.00
59729;BME280;45588;51.598;5.618;2022-07-23T00:35:29;101750.88;;;14.33;100.00
59729;BME280;45588;51.598;5.618;2022-07-23T00:37:55;101742.91;;;14.28;100.00
59729;BME280;45588;51.598;5.618;2022-07-23T00:40:20;101741.09;;;14.24;100.00
59729;BME280;45588;51.598;5.618;2022-07-23T00:42:46;101730.44;;;14.18;100.00
59729;BME280;45588;51.598;5.618;2022-07-23T00:45:11;101738.31;;;14.18;100.00
59729;BME280;45588;51.598;5.618;2022-07-23T00:47:37;101740.88;;;14.15;100.00
59729;BME280;45588;51.598;5.618;2022-07-23T00:50:04;101735.44;;;14.07;100.00
59729;BME280;45588;51.598;5.618;2022-07-23T00:52:31;101738.94;;;14.08;100.00
59729;BME280;45588;51.598;5.618;2022-07-23T00:54:56;101743.25;;;14.06;100.00
59729;BME280;45588;51.598;5.618;2022-07-23T00:57:22;101735.41;;;14.04;100.00
59729;BME280;45588;51.598;5.618;2022-07-23T00:59:47;101736.31;;;14.06;100.00
59729;BME280;45588;51.598;5.618;2022-07-23T01:02:13;101733.69;;;14.06;100.00
59729;BME280;45588;51.598;5.618;2022-07-23T01:04:38;101733.75;;;14.10;100.00
59729;BME280;45588;51.598;5.618;2022-07-23T01:07:03;101738.13;;;14.11;100.00
59729;BME280;45588;51.598;5.618;2022-07-23T01:09:29;101743.31;;;14.07;100.00
59729;BME280;45588;51.598;5.618;2022-07-23T01:11:56;101741.63;;;14.10;100.00
59729;BME280;45588;51.598;5.618;2022-07-23T01:14:22;101740.69;;;14.07;100.00
59729;BME280;45588;51.598;5.618;2022-07-23T01:16:48;101736.34;;;14.08;100.00
59729;BME280;45588;51.598;5.618;2022-07-23T01:19:14;101731.97;;;14.07;100.00
59729;BME280;45588;51.598;5.618;2022-07-23T01:21:42;101728.47;;;14.06;100.00
59729;BME280;45588;51.598;5.618;2022-07-23T01:24:09;101721.31;;;13.99;100.00
59729;BME280;45588;51.598;5.618;2022-07-23T01:26:35;101725.97;;;13.75;100.00
59729;BME280;45588;51.598;5.618;2022-07-23T01:29:01;101729.34;;;13.71;100.00
59729;BME280;45588;51.598;5.618;2022-07-23T01:31:27;101727.47;;;13.65;100.00
59729;BME280;45588;51.598;5.618;2022-07-23T01:33:52;101720.41;;;13.62;100.00
59729;BME280;45588;51.598;5.618;2022-07-23T01:36:18;101725.66;;;13.62;100.00
59729;BME280;45588;51.598;5.618;2022-07-23T01:38:43;101737.00;;;13.63;100.00
59729;BME280;45588;51.598;5.618;2022-07-23T01:41:08;101736.94;;;13.60;100.00
59729;BME280;45588;51.598;5.618;2022-07-23T01:43:33;101735.13;;;13.57;100.00
59729;BME280;45588;51.598;5.618;2022-07-23T01:45:59;101734.28;;;13.58;100.00
59729;BME280;45588;51.598;5.618;2022-07-23T01:48:24;101729.75;;;13.51;100.00
59729;BME280;45588;51.598;5.618;2022-07-23T01:50:49;101731.31;;;13.45;100.00
59729;BME280;45588;51.598;5.618;2022-07-23T01:53:15;101718.03;;;13.37;100.00
59729;BME280;45588;51.598;5.618;2022-07-23T01:55:41;101729.47;;;13.40;100.00
59729;BME280;45588;51.598;5.618;2022-07-23T01:58:06;101724.19;;;13.39;100.00
59729;BME280;45588;51.598;5.618;2022-07-23T02:00:32;101732.84;;;13.36;100.00
59729;BME280;45588;51.598;5.618;2022-07-23T02:02:57;101720.72;;;13.40;100.00
59729;BME280;45588;51.598;5.618;2022-07-23T02:05:26;101724.16;;;13.37;100.00
59729;BME280;45588;51.598;5.618;2022-07-23T02:07:54;101723.16;;;13.32;100.00
59729;BME280;45588;51.598;5.618;2022-07-23T02:10:19;101721.53;;;13.37;100.00
59729;BME280;45588;51.598;5.618;2022-07-23T02:12:45;101724.03;;;13.33;100.00
59729;BME280;45588;51.598;5.618;2022-07-23T02:15:10;101711.69;;;13.27;100.00
59729;BME280;45588;51.598;5.618;2022-07-23T02:17:35;101723.72;;;13.22;100.00
59729;BME280;45588;51.598;5.618;2022-07-23T02:20:01;101720.09;;;13.15;100.00
59729;BME280;45588;51.598;5.618;2022-07-23T02:22:26;101718.28;;;13.13;100.00
59729;BME280;45588;51.598;5.618;2022-07-23T02:24:51;101713.84;;;13.10;100.00
59729;BME280;45588;51.598;5.618;2022-07-23T02:27:17;101714.25;;;12.94;100.00
59729;BME280;45588;51.598;5.618;2022-07-23T02:29:42;101709.09;;;12.97;100.00
59729;BME280;45588;51.598;5.618;2022-07-23T02:32:07;101716.13;;;12.98;100.00
59729;BME280;45588;51.598;5.618;2022-07-23T02:34:33;101719.63;;;13.00;100.00
59729;BME280;45588;51.598;5.618;2022-07-23T02:36:58;101705.47;;;12.90;100.00
59729;BME280;45588;51.598;5.618;2022-07-23T02:39:23;101710.56;;;12.87;100.00
59729;BME280;45588;51.598;5.618;2022-07-23T02:41:49;101716.66;;;12.86;100.00
59729;BME280;45588;51.598;5.618;2022-07-23T02:44:14;101718.47;;;12.89;100.00
59729;BME280;45588;51.598;5.618;2022-07-23T02:46:39;101713.13;;;12.84;100.00
59729;BME280;45588;51.598;5.618;2022-07-23T02:49:04;101713.19;;;12.87;100.00
59729;BME280;45588;51.598;5.618;2022-07-23T02:51:30;101719.22;;;12.85;100.00
59729;BME280;45588;51.598;5.618;2022-07-23T02:53:56;101726.25;;;12.86;100.00
59729;BME280;45588;51.598;5.618;2022-07-23T02:56:21;101728.72;;;12.81;100.00
59729;BME280;45588;51.598;5.618;2022-07-23T02:58:46;101727.13;;;12.86;100.00
59729;BME280;45588;51.598;5.618;2022-07-23T03:01:11;101720.16;;;12.87;100.00
59729;BME280;45588;51.598;5.618;2022-07-23T03:03:37;101728.06;;;12.88;100.00
59729;BME280;45588;51.598;5.618;2022-07-23T03:06:02;101720.16;;;12.87;100.00
59729;BME280;45588;51.598;5.618;2022-07-23T03:08:28;101727.91;;;12.84;100.00
59729;BME280;45588;51.598;5.618;2022-07-23T03:10:54;101725.22;;;12.81;100.00
59729;BME280;45588;51.598;5.618;2022-07-23T03:13:19;101730.47;;;12.81;100.00
59729;BME280;45588;51.598;5.618;2022-07-23T03:15:44;101738.22;;;12.77;100.00
59729;BME280;45588;51.598;5.618;2022-07-23T03:18:10;101739.91;;;12.77;100.00
59729;BME280;45588;51.598;5.618;2022-07-23T03:20:35;101740.69;;;12.73;100.00
59729;BME280;45588;51.598;5.618;2022-07-23T03:23:01;101740.38;;;12.62;100.00
59729;BME280;45588;51.598;5.618;2022-07-23T03:25:26;101745.72;;;12.67;100.00
59729;BME280;45588;51.598;5.618;2022-07-23T03:27:51;101736.88;;;12.62;100.00
59729;BME280;45588;51.598;5.618;2022-07-23T03:30:17;101733.22;;;12.55;100.00
59729;BME280;45588;51.598;5.618;2022-07-23T03:32:42;101734.75;;;12.48;100.00
59729;BME280;45588;51.598;5.618;2022-07-23T03:35:08;101742.81;;;12.56;100.00
59729;BME280;45588;51.598;5.618;2022-07-23T03:37:33;101747.19;;;12.57;100.00
59729;BME280;45588;51.598;5.618;2022-07-23T03:39:58;101740.03;;;12.50;100.00
59729;BME280;45588;51.598;5.618;2022-07-23T03:42:24;101739.25;;;12.54;100.00
59729;BME280;45588;51.598;5.618;2022-07-23T03:44:49;101734.00;;;12.52;100.00
59729;BME280;45588;51.598;5.618;2022-07-23T03:47:14;101733.94;;;12.51;100.00
59729;BME280;45588;51.598;5.618;2022-07-23T03:49:41;101742.50;;;12.45;100.00
59729;BME280;45588;51.598;5.618;2022-07-23T03:52:07;101750.59;;;12.54;100.00
59729;BME280;45588;51.598;5.618;2022-07-23T03:54:33;101748.03;;;12.56;100.00
59729;BME280;45588;51.598;5.618;2022-07-23T03:56:58;101739.25;;;12.54;100.00
59729;BME280;45588;51.598;5.618;2022-07-23T03:59:24;101734.91;;;12.54;100.00
59729;BME280;45588;51.598;5.618;2022-07-23T04:01:49;101744.78;;;12.63;100.00
59729;BME280;45588;51.598;5.618;2022-07-23T04:04:14;101742.25;;;12.66;100.00
59729;BME280;45588;51.598;5.618;2022-07-23T04:06:40;101737.16;;;12.72;100.00
59729;BME280;45588;51.598;5.618;2022-07-23T04:09:05;101744.47;;;12.83;100.00
59729;BME280;45588;51.598;5.618;2022-07-23T04:11:30;101742.88;;;12.89;100.00
59729;BME280;45588;51.598;5.618;2022-07-23T04:13:56;101745.13;;;13.07;100.00
59729;BME280;45588;51.598;5.618;2022-07-23T04:16:21;101749.72;;;13.16;100.00
59729;BME280;45588;51.598;5.618;2022-07-23T04:18:46;101752.72;;;13.30;100.00
59729;BME280;45588;51.598;5.618;2022-07-23T04:21:12;101748.75;;;13.44;100.00
59729;BME280;45588;51.598;5.618;2022-07-23T04:23:37;101751.94;;;13.67;100.00
59729;BME280;45588;51.598;5.618;2022-07-23T04:26:02;101749.13;;;13.94;100.00
59729;BME280;45588;51.598;5.618;2022-07-23T04:28:28;101752.69;;;14.36;100.00
59729;BME280;45588;51.598;5.618;2022-07-23T04:30:56;101749.75;;;14.60;100.00
59729;BME280;45588;51.598;5.618;2022-07-23T04:33:21;101751.13;;;14.85;100.00
59729;BME280;45588;51.598;5.618;2022-07-23T04:35:47;101758.66;;;15.12;100.00
59729;BME280;45588;51.598;5.618;2022-07-23T04:38:12;101762.91;;;15.52;100.00
59729;BME280;45588;51.598;5.618;2022-07-23T04:40:37;101764.78;;;15.61;100.00
59729;BME280;45588;51.598;5.618;2022-07-23T04:43:02;101769.06;;;16.06;100.00
59729;BME280;45588;51.598;5.618;2022-07-23T04:45:28;101761.47;;;16.26;100.00
59729;BME280;45588;51.598;5.618;2022-07-23T04:47:53;101757.81;;;16.79;100.00
59729;BME280;45588;51.598;5.618;2022-07-23T04:50:18;101776.09;;;16.71;100.00
59729;BME280;45588;51.598;5.618;2022-07-23T04:52:47;101768.66;;;17.08;100.00
59729;BME280;45588;51.598;5.618;2022-07-23T04:55:12;101772.28;;;17.21;100.00
59729;BME280;45588;51.598;5.618;2022-07-23T04:57:38;101774.59;;;16.89;100.00
59729;BME280;45588;51.598;5.618;2022-07-23T05:00:04;101776.16;;;16.77;100.00
59729;BME280;45588;51.598;5.618;2022-07-23T05:02:29;101770.81;;;16.70;100.00
59729;BME280;45588;51.598;5.618;2022-07-23T05:04:55;101772.16;;;15.82;100.00
59729;BME280;45588;51.598;5.618;2022-07-23T05:07:20;101767.94;;;15.42;100.00
59729;BME280;45588;51.598;5.618;2022-07-23T05:09:45;101772.97;;;15.29;100.00
59729;BME280;45588;51.598;5.618;2022-07-23T05:12:10;101782.03;;;15.00;100.00
59729;BME280;45588;51.598;5.618;2022-07-23T05:14:36;101780.03;;;14.88;100.00
59729;BME280;45588;51.598;5.618;2022-07-23T05:17:01;101785.13;;;14.80;100.00
59729;BME280;45588;51.598;5.618;2022-07-23T05:19:26;101780.59;;;14.73;100.00
59729;BME280;45588;51.598;5.618;2022-07-23T05:21:52;101782.19;;;14.66;100.00
59729;BME280;45588;51.598;5.618;2022-07-23T05:24:17;101783.03;;;14.64;100.00
59729;BME280;45588;51.598;5.618;2022-07-23T05:26:42;101794.47;;;14.67;100.00
59729;BME280;45588;51.598;5.618;2022-07-23T05:29:07;101795.50;;;14.74;100.00
59729;BME280;45588;51.598;5.618;2022-07-23T05:31:33;101796.41;;;14.76;100.00
59729;BME280;45588;51.598;5.618;2022-07-23T05:33:58;101796.13;;;15.06;100.00
59729;BME280;45588;51.598;5.618;2022-07-23T05:36:24;101792.59;;;15.03;100.00
59729;BME280;45588;51.598;5.618;2022-07-23T05:38:49;101790.97;;;15.09;100.00
59729;BME280;45588;51.598;5.618;2022-07-23T05:41:15;101798.06;;;15.15;100.00
59729;BME280;45588;51.598;5.618;2022-07-23T05:43:40;101805.28;;;15.27;100.00
59729;BME280;45588;51.598;5.618;2022-07-23T05:46:05;101801.91;;;15.32;100.00
59729;BME280;45588;51.598;5.618;2022-07-23T05:48:31;101792.28;;;15.34;100.00
59729;BME280;45588;51.598;5.618;2022-07-23T05:50:56;101788.16;;;15.46;100.00
59729;BME280;45588;51.598;5.618;2022-07-23T05:53:22;101802.16;;;15.46;100.00
59729;BME280;45588;51.598;5.618;2022-07-23T05:55:47;101798.88;;;15.59;100.00
59729;BME280;45588;51.598;5.618;2022-07-23T05:58:12;101800.03;;;15.74;100.00
59729;BME280;45588;51.598;5.618;2022-07-23T06:00:38;101808.13;;;15.86;100.00
59729;BME280;45588;51.598;5.618;2022-07-23T06:03:03;101815.44;;;16.04;100.00
59729;BME280;45588;51.598;5.618;2022-07-23T06:05:28;101810.41;;;16.19;100.00
59729;BME280;45588;51.598;5.618;2022-07-23T06:07:53;101821.81;;;16.18;100.00
59729;BME280;45588;51.598;5.618;2022-07-23T06:10:19;101815.78;;;16.27;100.00
59729;BME280;45588;51.598;5.618;2022-07-23T06:12:44;101825.69;;;16.43;100.00
59729;BME280;45588;51.598;5.618;2022-07-23T06:15:10;101824.97;;;16.55;100.00
59729;BME280;45588;51.598;5.618;2022-07-23T06:17:36;101834.81;;;16.70;100.00
59729;BME280;45588;51.598;5.618;2022-07-23T06:20:04;101821.63;;;16.67;100.00
59729;BME280;45588;51.598;5.618;2022-07-23T06:22:30;101837.47;;;16.72;100.00
59729;BME280;45588;51.598;5.618;2022-07-23T06:24:55;101837.41;;;16.67;100.00
59729;BME280;45588;51.598;5.618;2022-07-23T06:27:20;101826.75;;;16.58;100.00
59729;BME280;45588;51.598;5.618;2022-07-23T06:29:46;101830.22;;;16.55;100.00
59729;BME280;45588;51.598;5.618;2022-07-23T06:32:11;101820.72;;;16.63;100.00
59729;BME280;45588;51.598;5.618;2022-07-23T06:34:36;101814.53;;;16.63;100.00
59729;BME280;45588;51.598;5.618;2022-07-23T06:37:02;101823.16;;;16.51;100.00
59729;BME280;45588;51.598;5.618;2022-07-23T06:39:27;101822.28;;;16.51;100.00
59729;BME280;45588;51.598;5.618;2022-07-23T06:41:52;101832.34;;;16.79;100.00
59729;BME280;45588;51.598;5.618;2022-07-23T06:44:18;101834.28;;;16.96;100.00
59729;BME280;45588;51.598;5.618;2022-07-23T06:46:43;101835.31;;;17.04;100.00
59729;BME280;45588;51.598;5.618;2022-07-23T06:49:09;101833.56;;;17.07;100.00
59729;BME280;45588;51.598;5.618;2022-07-23T06:51:34;101835.63;;;17.33;100.00
59729;BME280;45588;51.598;5.618;2022-07-23T06:54:00;101837.38;;;17.33;100.00
59729;BME280;45588;51.598;5.618;2022-07-23T06:56:25;101829.56;;;17.40;100.00
59729;BME280;45588;51.598;5.618;2022-07-23T06:58:50;101830.53;;;17.47;100.00
59729;BME280;45588;51.598;5.618;2022-07-23T07:01:16;101830.59;;;17.55;100.00
59729;BME280;45588;51.598;5.618;2022-07-23T07:03:41;101836.69;;;17.50;100.00
59729;BME280;45588;51.598;5.618;2022-07-23T07:06:06;101842.97;;;17.62;100.00
59729;BME280;45588;51.598;5.618;2022-07-23T07:08:32;101836.78;;;17.61;100.00
59729;BME280;45588;51.598;5.618;2022-07-23T07:10:57;101834.22;;;17.66;100.00
59729;BME280;45588;51.598;5.618;2022-07-23T07:13:22;101843.28;;;17.94;100.00
59729;BME280;45588;51.598;5.618;2022-07-23T07:15:48;101846.78;;;17.93;100.00
59729;BME280;45588;51.598;5.618;2022-07-23T07:18:13;101843.41;;;18.08;100.00
59729;BME280;45588;51.598;5.618;2022-07-23T07:20:38;101836.41;;;18.10;100.00
59729;BME280;45588;51.598;5.618;2022-07-23T07:23:03;101838.97;;;18.02;100.00
59729;BME280;45588;51.598;5.618;2022-07-23T07:25:29;101826.88;;;18.33;100.00
59729;BME280;45588;51.598;5.618;2022-07-23T07:27:54;101827.63;;;18.14;100.00
59729;BME280;45588;51.598;5.618;2022-07-23T07:30:19;101826.88;;;18.30;100.00
59729;BME280;45588;51.598;5.618;2022-07-23T07:32:45;101832.97;;;18.23;100.00
59729;BME280;45588;51.598;5.618;2022-07-23T07:35:10;101819.06;;;18.43;100.00
59729;BME280;45588;51.598;5.618;2022-07-23T07:37:35;101825.16;;;18.35;100.00
59729;BME280;45588;51.598;5.618;2022-07-23T07:40:01;101824.38;;;18.53;100.00
59729;BME280;45588;51.598;5.618;2022-07-23T07:42:26;101835.88;;;18.60;99.09
59729;BME280;45588;51.598;5.618;2022-07-23T07:44:51;101835.03;;;18.70;99.98
59729;BME280;45588;51.598;5.618;2022-07-23T07:47:17;101842.13;;;18.79;99.94
59729;BME280;45588;51.598;5.618;2022-07-23T07:49:42;101843.84;;;18.72;96.36
59729;BME280;45588;51.598;5.618;2022-07-23T07:52:08;101850.88;;;18.70;97.06
59729;BME280;45588;51.598;5.618;2022-07-23T07:54:34;101847.25;;;18.53;92.69
59729;BME280;45588;51.598;5.618;2022-07-23T07:56:59;101841.13;;;18.58;95.90
59729;BME280;45588;51.598;5.618;2022-07-23T07:59:24;101839.59;;;18.99;100.00
59729;BME280;45588;51.598;5.618;2022-07-23T08:01:50;101843.19;;;19.19;100.00
59729;BME280;45588;51.598;5.618;2022-07-23T08:04:16;101846.66;;;19.00;92.44
59729;BME280;45588;51.598;5.618;2022-07-23T08:06:41;101843.16;;;19.02;93.78
59729;BME280;45588;51.598;5.618;2022-07-23T08:09:06;101850.13;;;18.94;98.24
59729;BME280;45588;51.598;5.618;2022-07-23T08:11:31;101844.06;;;19.11;97.78
59729;BME280;45588;51.598;5.618;2022-07-23T08:13:57;101840.56;;;19.19;95.80
59729;BME280;45588;51.598;5.618;2022-07-23T08:16:22;101845.06;;;19.57;100.00
59729;BME280;45588;51.598;5.618;2022-07-23T08:18:47;101844.25;;;19.84;99.30
59729;BME280;45588;51.598;5.618;2022-07-23T08:21:12;101846.88;;;19.83;96.95
59729;BME280;45588;51.598;5.618;2022-07-23T08:23:38;101850.41;;;19.86;93.44
59729;BME280;45588;51.598;5.618;2022-07-23T08:26:03;101849.44;;;19.41;89.05
59729;BME280;45588;51.598;5.618;2022-07-23T08:28:29;101852.19;;;19.81;97.14
59729;BME280;45588;51.598;5.618;2022-07-23T08:30:58;101856.56;;;20.13;96.89
59729;BME280;45588;51.598;5.618;2022-07-23T08:33:23;101855.69;;;19.85;87.20
59729;BME280;45588;51.598;5.618;2022-07-23T08:35:49;101852.19;;;20.00;90.26
59729;BME280;45588;51.598;5.618;2022-07-23T08:38:17;101858.34;;;19.76;89.73
59729;BME280;45588;51.598;5.618;2022-07-23T08:40:44;101867.09;;;19.56;86.29
59729;BME280;45588;51.598;5.618;2022-07-23T08:43:13;101863.66;;;19.91;92.14
59729;BME280;45588;51.598;5.618;2022-07-23T08:45:41;101869.81;;;20.07;91.72
59729;BME280;45588;51.598;5.618;2022-07-23T08:48:36;101876.00;;;19.94;87.72
59729;BME280;45588;51.598;5.618;2022-07-23T08:51:03;101864.53;;;19.81;88.01
59729;BME280;45588;51.598;5.618;2022-07-23T08:53:30;101873.34;;;19.89;87.88
59729;BME280;45588;51.598;5.618;2022-07-23T08:56:00;101876.88;;;20.03;89.90
59729;BME280;45588;51.598;5.618;2022-07-23T08:58:26;101876.00;;;20.34;93.46
59729;BME280;45588;51.598;5.618;2022-07-23T09:00:52;101881.28;;;20.41;88.23
59729;BME280;45588;51.598;5.618;2022-07-23T09:03:23;101875.06;;;20.50;92.32
59729;BME280;45588;51.598;5.618;2022-07-23T09:05:52;101883.91;;;20.55;88.56
59729;BME280;45588;51.598;5.618;2022-07-23T09:08:23;101887.41;;;20.43;87.07
59729;BME280;45588;51.598;5.618;2022-07-23T09:10:54;101878.63;;;20.58;87.55
59729;BME280;45588;51.598;5.618;2022-07-23T09:15:53;101879.50;;;20.54;79.47
59729;BME280;45588;51.598;5.618;2022-07-23T09:18:28;101877.75;;;20.59;80.06
59729;BME280;45588;51.598;5.618;2022-07-23T09:21:05;101876.75;;;20.94;77.87
59729;BME280;45588;51.598;5.618;2022-07-23T09:23:58;101870.47;;;21.21;77.68
59729;BME280;45588;51.598;5.618;2022-07-23T09:26:36;101868.88;;;20.80;78.92
59729;BME280;45588;51.598;5.618;2022-07-23T09:29:17;101862.63;;;20.98;80.84
59729;BME280;45588;51.598;5.618;2022-07-23T09:31:44;101865.31;;;20.92;79.37
59729;BME280;45588;51.598;5.618;2022-07-23T09:36:53;101852.03;;;20.95;75.36
59729;BME280;45588;51.598;5.618;2022-07-23T09:39:28;101856.38;;;21.13;78.68
59729;BME280;45588;51.598;5.618;2022-07-23T09:41:53;101865.19;;;21.18;79.80
59729;BME280;45588;51.598;5.618;2022-07-23T09:44:20;101860.69;;;21.37;80.60
59729;BME280;45588;51.598;5.618;2022-07-23T09:46:49;101862.47;;;21.39;80.36
59729;BME280;45588;51.598;5.618;2022-07-23T09:49:16;101865.03;;;21.52;80.45
59729;BME280;45588;51.598;5.618;2022-07-23T09:52:01;101858.94;;;21.42;76.91
59729;BME280;45588;51.598;5.618;2022-07-23T09:54:33;101863.25;;;21.60;80.82
59729;BME280;45588;51.598;5.618;2022-07-23T09:57:05;101863.09;;;21.77;86.93
59729;BME280;45588;51.598;5.618;2022-07-23T09:59:36;101866.66;;;21.77;80.44
59729;BME280;45588;51.598;5.618;2022-07-23T10:02:02;101873.09;;;21.30;73.66
59729;BME280;45588;51.598;5.618;2022-07-23T10:04:29;101872.09;;;21.57;74.79
59729;BME280;45588;51.598;5.618;2022-07-23T10:07:00;101871.91;;;21.83;76.29
59729;BME280;45588;51.598;5.618;2022-07-23T10:09:31;101861.38;;;21.73;73.13
59729;BME280;45588;51.598;5.618;2022-07-23T10:11:59;101871.16;;;21.61;75.80
59729;BME280;45588;51.598;5.618;2022-07-23T10:14:34;101870.38;;;21.44;70.94
59729;BME280;45588;51.598;5.618;2022-07-23T10:17:02;101866.00;;;21.37;74.48
59729;BME280;45588;51.598;5.618;2022-07-23T10:19:27;101871.38;;;21.17;73.13
59729;BME280;45588;51.598;5.618;2022-07-23T10:22:15;101865.97;;;21.42;72.50
59729;BME280;45588;51.598;5.618;2022-07-23T10:27:34;101869.28;;;21.80;75.71
59729;BME280;45588;51.598;5.618;2022-07-23T10:30:09;101865.03;;;21.52;71.58
59729;BME280;45588;51.598;5.618;2022-07-23T10:40:57;101866.63;;;21.80;69.79
59729;BME280;45588;51.598;5.618;2022-07-23T10:43:23;101863.72;;;22.10;71.52
59729;BME280;45588;51.598;5.618;2022-07-23T10:45:49;101864.50;;;22.30;69.02
59729;BME280;45588;51.598;5.618;2022-07-23T10:48:22;101871.50;;;22.34;72.04
59729;BME280;45588;51.598;5.618;2022-07-23T10:56:16;101859.47;;;22.86;69.09
59729;BME280;45588;51.598;5.618;2022-07-23T10:58:49;101856.25;;;22.55;67.96
59729;BME280;45588;51.598;5.618;2022-07-23T11:01:37;101868.28;;;22.91;70.65
59729;BME280;45588;51.598;5.618;2022-07-23T11:04:04;101858.66;;;22.81;72.95
59729;BME280;45588;51.598;5.618;2022-07-23T11:09:27;101864.97;;;22.71;68.40
59729;BME280;45588;51.598;5.618;2022-07-23T11:15:10;101869.53;;;22.56;72.36
59729;BME280;45588;51.598;5.618;2022-07-23T11:25:12;101859.78;;;22.57;69.50
59729;BME280;45588;51.598;5.618;2022-07-23T11:27:42;101861.41;;;22.70;64.17
59729;BME280;45588;51.598;5.618;2022-07-23T11:30:10;101861.25;;;22.84;65.20
59729;BME280;45588;51.598;5.618;2022-07-23T11:32:38;101861.94;;;23.03;63.76
59729;BME280;45588;51.598;5.618;2022-07-23T11:35:27;101865.03;;;23.39;68.38
59729;BME280;45588;51.598;5.618;2022-07-23T11:38:19;101856.69;;;22.97;63.94
59729;BME280;45588;51.598;5.618;2022-07-23T11:40:51;101854.34;;;22.67;68.90
59729;BME280;45588;51.598;5.618;2022-07-23T11:43:17;101861.00;;;23.08;70.13
59729;BME280;45588;51.598;5.618;2022-07-23T11:45:46;101859.53;;;22.80;66.72
59729;BME280;45588;51.598;5.618;2022-07-23T11:48:22;101844.16;;;23.09;72.54
59729;BME280;45588;51.598;5.618;2022-07-23T11:50:50;101845.69;;;23.27;70.57
59729;BME280;45588;51.598;5.618;2022-07-23T11:53:27;101848.50;;;23.15;69.67
59729;BME280;45588;51.598;5.618;2022-07-23T11:55:53;101854.06;;;22.94;65.89
59729;BME280;45588;51.598;5.618;2022-07-23T11:58:20;101856.69;;;22.95;66.18
59729;BME280;45588;51.598;5.618;2022-07-23T12:00:45;101855.66;;;23.10;66.11
59729;BME280;45588;51.598;5.618;2022-07-23T12:03:11;101859.06;;;23.20;62.91
59729;BME280;45588;51.598;5.618;2022-07-23T12:05:37;101855.00;;;22.89;63.98
59729;BME280;45588;51.598;5.618;2022-07-23T12:08:05;101858.44;;;22.99;60.50
59729;BME280;45588;51.598;5.618;2022-07-23T12:10:36;101853.16;;;22.95;65.03
59729;BME280;45588;51.598;5.618;2022-07-23T12:13:13;101857.66;;;22.89;59.42
59729;BME280;45588;51.598;5.618;2022-07-23T12:15:45;101861.31;;;22.78;61.04
59729;BME280;45588;51.598;5.618;2022-07-23T12:18:12;101846.25;;;22.80;62.14
59729;BME280;45588;51.598;5.618;2022-07-23T12:20:44;101850.88;;;23.35;65.41
59729;BME280;45588;51.598;5.618;2022-07-23T12:23:12;101845.66;;;23.29;62.17
59729;BME280;45588;51.598;5.618;2022-07-23T12:25:39;101848.28;;;23.33;67.09
59729;BME280;45588;51.598;5.618;2022-07-23T12:28:06;101850.75;;;23.44;62.41
59729;BME280;45588;51.598;5.618;2022-07-23T12:30:37;101849.09;;;23.37;59.74
59729;BME280;45588;51.598;5.618;2022-07-23T12:33:04;101853.31;;;23.52;60.18
59729;BME280;45588;51.598;5.618;2022-07-23T12:35:35;101841.75;;;23.53;55.85
59729;BME280;45588;51.598;5.618;2022-07-23T12:38:07;101849.00;;;23.43;57.58
59729;BME280;45588;51.598;5.618;2022-07-23T12:40:37;101840.19;;;23.41;59.80
59729;BME280;45588;51.598;5.618;2022-07-23T12:43:09;101836.78;;;23.31;58.54
59729;BME280;45588;51.598;5.618;2022-07-23T12:45:44;101831.19;;;23.50;63.47
59729;BME280;45588;51.598;5.618;2022-07-23T12:48:17;101831.28;;;23.42;63.12
59729;BME280;45588;51.598;5.618;2022-07-23T12:53:15;101824.00;;;23.55;61.87
59729;BME280;45588;51.598;5.618;2022-07-23T12:55:42;101834.22;;;23.24;72.01
59729;BME280;45588;51.598;5.618;2022-07-23T12:58:11;101829.38;;;23.50;72.16
59729;BME280;45588;51.598;5.618;2022-07-23T13:00:57;101828.59;;;23.45;64.65
59729;BME280;45588;51.598;5.618;2022-07-23T13:03:37;101817.34;;;23.85;66.08
59729;BME280;45588;51.598;5.618;2022-07-23T13:06:04;101816.78;;;23.65;67.33
59729;BME280;45588;51.598;5.618;2022-07-23T13:08:31;101821.34;;;23.55;62.43
59729;BME280;45588;51.598;5.618;2022-07-23T13:10:57;101822.00;;;23.72;66.63
59729;BME280;45588;51.598;5.618;2022-07-23T13:13:25;101830.47;;;23.39;62.07
59729;BME280;45588;51.598;5.618;2022-07-23T13:15:51;101831.22;;;22.77;68.74
59729;BME280;45588;51.598;5.618;2022-07-23T13:18:18;101831.34;;;22.68;71.75
59729;BME280;45588;51.598;5.618;2022-07-23T13:20:45;101833.22;;;22.58;70.84